createdAt,value
2018-12-30T00:01:14.548Z,5.20
2018-12-30T00:03:47.242Z,5.20
2018-12-30T00:06:21.864Z,5.20
2018-12-30T00:08:56.322Z,5.10
2018-12-30T00:11:29.998Z,5.10
2018-12-30T00:14:03.734Z,5.00
2018-12-30T00:16:37.314Z,5.00
2018-12-30T00:19:11.707Z,5.00
2018-12-30T00:21:45.639Z,5.00
2018-12-30T00:24:19.958Z,5.30
2018-12-30T00:26:53.851Z,5.30
2018-12-30T00:29:27.543Z,5.50
2018-12-30T00:32:01.068Z,5.70
2018-12-30T00:34:34.708Z,5.70
2018-12-30T00:37:08.254Z,5.80
2018-12-30T00:39:41.947Z,5.80
2018-12-30T00:42:15.544Z,5.80
2018-12-30T00:44:50.077Z,5.90
2018-12-30T00:47:23.799Z,5.90
2018-12-30T00:49:57.450Z,5.90
2018-12-30T00:52:31.811Z,5.80
2018-12-30T00:55:05.530Z,5.80
2018-12-30T00:57:39.289Z,5.80
2018-12-30T01:00:12.844Z,5.80
2018-12-30T01:02:46.595Z,5.80
2018-12-30T01:05:20.220Z,5.80
2018-12-30T01:07:53.912Z,5.80
2018-12-30T01:10:27.652Z,5.80
2018-12-30T01:13:01.429Z,5.90
2018-12-30T01:15:35.169Z,5.90
2018-12-30T01:18:08.887Z,5.80
2018-12-30T01:20:42.533Z,5.90
2018-12-30T01:23:16.232Z,5.90
2018-12-30T01:25:49.829Z,5.90
2018-12-30T01:28:23.393Z,5.90
2018-12-30T01:30:57.240Z,5.90
2018-12-30T01:33:30.886Z,5.90
2018-12-30T01:36:04.426Z,5.90
2018-12-30T01:38:38.036Z,5.90
2018-12-30T01:41:12.236Z,5.90
2018-12-30T01:43:45.870Z,5.90
2018-12-30T01:46:19.652Z,5.90
2018-12-30T01:48:53.265Z,5.90
2018-12-30T01:51:33.038Z,5.90
2018-12-30T01:54:00.375Z,5.90
2018-12-30T01:56:33.978Z,5.90
2018-12-30T01:59:08.404Z,5.90
2018-12-30T02:01:42.821Z,5.90
2018-12-30T02:04:16.522Z,5.90
2018-12-30T02:06:50.296Z,5.90
2018-12-30T02:09:24.647Z,6.00
2018-12-30T02:11:59.248Z,6.00
2018-12-30T02:14:32.903Z,6.00
2018-12-30T02:17:06.630Z,6.00
2018-12-30T02:19:40.279Z,6.00
2018-12-30T02:22:13.880Z,6.00
2018-12-30T02:24:47.459Z,6.00
2018-12-30T02:27:21.190Z,6.00
2018-12-30T02:29:54.796Z,6.00
2018-12-30T02:32:28.390Z,6.00
2018-12-30T02:35:02.213Z,6.00
2018-12-30T02:37:35.824Z,6.00
2018-12-30T02:40:09.528Z,6.00
2018-12-30T02:42:43.128Z,6.00
2018-12-30T02:45:16.998Z,6.00
2018-12-30T02:47:50.457Z,6.10
2018-12-30T02:50:24.042Z,6.10
2018-12-30T02:52:57.696Z,6.10
2018-12-30T02:55:31.455Z,6.10
2018-12-30T02:58:05.245Z,6.10
2018-12-30T03:00:38.954Z,6.20
2018-12-30T03:03:12.553Z,6.20
2018-12-30T03:05:46.125Z,6.30
2018-12-30T03:08:19.689Z,6.20
2018-12-30T03:10:53.459Z,6.20
2018-12-30T03:13:27.169Z,6.20
2018-12-30T03:16:02.366Z,6.20
2018-12-30T03:18:35.910Z,6.20
2018-12-30T03:21:09.479Z,6.20
2018-12-30T03:23:44.080Z,6.20
2018-12-30T03:26:17.607Z,6.20
2018-12-30T03:28:51.886Z,6.20
2018-12-30T03:31:25.612Z,6.20
2018-12-30T03:33:59.201Z,6.20
2018-12-30T03:36:32.892Z,6.20
2018-12-30T03:39:07.343Z,6.20
2018-12-30T03:41:40.880Z,6.20
2018-12-30T03:44:14.432Z,6.10
2018-12-30T03:46:48.049Z,6.10
2018-12-30T03:49:21.615Z,6.10
2018-12-30T03:51:55.280Z,6.10
2018-12-30T03:54:28.874Z,6.10
2018-12-30T03:57:02.610Z,6.10
2018-12-30T03:59:36.182Z,6.00
2018-12-30T04:02:09.871Z,6.00
2018-12-30T04:04:43.457Z,6.00
2018-12-30T04:07:17.905Z,6.00
2018-12-30T04:09:51.693Z,6.00
2018-12-30T04:12:25.180Z,6.00
2018-12-30T04:14:58.920Z,6.00
2018-12-30T04:17:32.768Z,6.10
2018-12-30T04:20:06.372Z,6.10
2018-12-30T04:22:40.123Z,6.10
2018-12-30T04:25:13.718Z,6.10
2018-12-30T04:27:47.841Z,6.10
2018-12-30T04:30:22.315Z,6.10
2018-12-30T04:32:56.071Z,6.10
2018-12-30T04:35:30.540Z,6.20
2018-12-30T04:38:04.154Z,6.20
2018-12-30T04:40:37.793Z,6.20
2018-12-30T04:43:12.298Z,6.20
2018-12-30T04:45:46.695Z,6.10
2018-12-30T04:48:20.390Z,6.20
2018-12-30T04:50:54.027Z,6.10
2018-12-30T04:53:27.744Z,6.20
2018-12-30T04:56:01.399Z,6.10
2018-12-30T04:58:35.048Z,6.10
2018-12-30T05:01:08.845Z,6.10
2018-12-30T05:03:42.428Z,6.20
2018-12-30T05:06:16.024Z,6.20
2018-12-30T05:08:49.627Z,6.20
2018-12-30T05:11:23.166Z,6.20
2018-12-30T05:13:56.771Z,6.20
2018-12-30T05:16:30.551Z,6.30
2018-12-30T05:19:04.131Z,6.30
2018-12-30T05:21:37.964Z,6.30
2018-12-30T05:24:11.655Z,6.30
2018-12-30T05:26:45.223Z,6.30
2018-12-30T05:29:18.783Z,6.30
2018-12-30T05:31:53.189Z,6.30
2018-12-30T05:34:26.825Z,6.30
2018-12-30T05:37:00.507Z,6.40
2018-12-30T05:39:34.920Z,6.40
2018-12-30T05:42:08.491Z,6.40
2018-12-30T05:44:42.116Z,6.40
2018-12-30T05:47:15.747Z,6.40
2018-12-30T05:49:49.334Z,6.40
2018-12-30T05:52:22.833Z,6.40
2018-12-30T05:54:56.543Z,6.40
2018-12-30T05:57:30.300Z,6.40
2018-12-30T06:00:03.907Z,6.40
2018-12-30T06:02:38.454Z,6.40
2018-12-30T06:05:12.109Z,6.40
2018-12-30T06:07:45.623Z,6.40
2018-12-30T06:10:19.192Z,6.40
2018-12-30T06:12:52.732Z,6.40
2018-12-30T06:15:26.358Z,6.40
2018-12-30T06:18:00.084Z,6.40
2018-12-30T06:20:34.558Z,6.30
2018-12-30T06:23:08.076Z,6.30
2018-12-30T06:25:41.707Z,6.40
2018-12-30T06:28:15.466Z,6.40
2018-12-30T06:30:49.071Z,6.30
2018-12-30T06:33:22.849Z,6.30
2018-12-30T06:35:57.058Z,6.30
2018-12-30T06:38:30.816Z,6.30
2018-12-30T06:41:04.661Z,6.30
2018-12-30T06:43:38.331Z,6.40
2018-12-30T06:46:11.905Z,6.30
2018-12-30T06:48:45.540Z,6.30
2018-12-30T06:51:19.364Z,6.30
2018-12-30T06:53:52.876Z,6.30
2018-12-30T06:56:26.538Z,6.30
2018-12-30T06:59:00.111Z,6.30
2018-12-30T07:01:33.842Z,6.30
2018-12-30T07:04:07.566Z,6.30
2018-12-30T07:06:41.106Z,6.30
2018-12-30T07:09:14.633Z,6.30
2018-12-30T07:11:48.199Z,6.30
2018-12-30T07:14:22.560Z,6.30
2018-12-30T07:16:56.253Z,6.30
2018-12-30T07:19:29.850Z,6.30
2018-12-30T07:22:03.416Z,6.30
2018-12-30T07:24:37.142Z,6.30
2018-12-30T07:27:10.728Z,6.30
2018-12-30T07:29:44.549Z,6.30
2018-12-30T07:32:18.263Z,6.30
2018-12-30T07:34:51.975Z,6.30
2018-12-30T07:37:25.566Z,6.40
2018-12-30T07:39:59.152Z,6.40
2018-12-30T07:42:33.518Z,6.30
2018-12-30T07:45:08.014Z,6.40
2018-12-30T07:47:41.788Z,6.40
2018-12-30T07:50:15.365Z,6.40
2018-12-30T07:52:49.967Z,6.40
2018-12-30T07:55:23.695Z,6.40
2018-12-30T07:57:57.383Z,6.40
2018-12-30T08:00:31.155Z,6.40
2018-12-30T08:03:04.866Z,6.40
2018-12-30T08:05:38.588Z,6.40
2018-12-30T08:08:13.076Z,6.40
2018-12-30T08:10:46.854Z,6.40
2018-12-30T08:13:21.211Z,6.40
2018-12-30T08:15:54.898Z,6.40
2018-12-30T08:18:28.532Z,6.40
2018-12-30T08:21:02.103Z,6.40
2018-12-30T08:23:35.693Z,6.40
2018-12-30T08:26:09.448Z,6.40
2018-12-30T08:28:43.039Z,6.50
2018-12-30T08:31:16.695Z,6.50
2018-12-30T08:33:50.324Z,6.50
2018-12-30T08:36:23.880Z,6.60
2018-12-30T08:38:57.446Z,6.70
2018-12-30T08:41:31.007Z,6.70
2018-12-30T08:44:05.584Z,6.80
2018-12-30T08:46:39.264Z,6.80
2018-12-30T08:49:12.935Z,6.80
2018-12-30T08:51:46.508Z,6.90
2018-12-30T08:54:20.276Z,6.90
2018-12-30T08:56:53.878Z,6.90
2018-12-30T08:59:27.407Z,6.90
2018-12-30T09:02:01.108Z,7.00
2018-12-30T09:04:34.667Z,7.20
2018-12-30T09:07:09.223Z,7.40
2018-12-30T09:09:42.803Z,7.70
2018-12-30T09:12:16.398Z,7.80
2018-12-30T09:14:50.236Z,7.90
2018-12-30T09:17:24.047Z,7.90
2018-12-30T09:19:57.684Z,7.70
2018-12-30T09:22:32.033Z,7.40
2018-12-30T09:25:06.330Z,7.30
2018-12-30T09:27:40.096Z,7.30
2018-12-30T09:30:13.796Z,7.30
2018-12-30T09:32:47.476Z,7.20
2018-12-30T09:35:21.040Z,7.20
2018-12-30T09:37:54.588Z,7.20
2018-12-30T09:40:28.232Z,7.20
2018-12-30T09:43:02.662Z,7.30
2018-12-30T09:45:36.194Z,7.40
2018-12-30T09:48:09.767Z,7.50
2018-12-30T09:50:43.499Z,7.60
2018-12-30T09:53:17.124Z,7.80
2018-12-30T09:55:50.925Z,7.90
2018-12-30T09:58:24.649Z,8.00
2018-12-30T10:00:58.288Z,8.00
2018-12-30T10:03:32.720Z,7.80
2018-12-30T10:06:06.413Z,7.80
2018-12-30T10:08:40.684Z,7.80
2018-12-30T10:11:14.240Z,7.80
2018-12-30T10:13:47.920Z,7.90
2018-12-30T10:16:21.478Z,8.00
2018-12-30T10:18:55.874Z,7.90
2018-12-30T10:21:29.578Z,7.90
2018-12-30T10:24:03.282Z,7.80
2018-12-30T10:26:37.735Z,7.70
2018-12-30T10:29:11.399Z,7.60
2018-12-30T10:31:45.004Z,7.60
2018-12-30T10:34:18.792Z,7.60
2018-12-30T10:36:52.349Z,7.50
2018-12-30T10:39:27.060Z,7.60
2018-12-30T10:42:00.752Z,7.60
2018-12-30T10:44:34.334Z,7.60
2018-12-30T10:47:07.933Z,7.60
2018-12-30T10:49:42.576Z,7.60
2018-12-30T10:52:16.368Z,7.70
2018-12-30T10:54:49.905Z,7.70
2018-12-30T10:57:23.590Z,7.90
2018-12-30T10:59:58.082Z,8.10
2018-12-30T11:02:32.509Z,8.10
2018-12-30T11:05:06.045Z,8.20
2018-12-30T11:07:39.625Z,8.20
2018-12-30T11:10:13.280Z,8.10
2018-12-30T11:12:47.078Z,8.10
2018-12-30T11:15:20.781Z,8.10
2018-12-30T11:17:54.435Z,8.00
2018-12-30T11:20:28.014Z,8.00
2018-12-30T11:23:01.676Z,7.90
2018-12-30T11:25:35.358Z,7.90
2018-12-30T11:28:08.916Z,7.90
2018-12-30T11:30:42.407Z,7.90
2018-12-30T11:33:16.087Z,8.00
2018-12-30T11:35:49.766Z,7.90
2018-12-30T11:38:23.368Z,7.90
2018-12-30T11:40:57.900Z,7.80
2018-12-30T11:43:31.714Z,7.80
2018-12-30T11:46:05.582Z,7.90
2018-12-30T11:48:39.116Z,7.90
2018-12-30T11:51:12.855Z,7.80
2018-12-30T11:53:46.523Z,7.80
2018-12-30T11:56:20.381Z,7.80
2018-12-30T11:58:54.042Z,7.70
2018-12-30T12:01:27.690Z,7.70
2018-12-30T12:04:01.354Z,7.70
2018-12-30T12:06:35.069Z,7.80
2018-12-30T12:09:09.409Z,7.80
2018-12-30T12:11:43.018Z,7.80
2018-12-30T12:14:16.759Z,7.80
2018-12-30T12:16:50.323Z,7.80
2018-12-30T12:19:24.057Z,7.80
2018-12-30T12:21:57.687Z,7.80
2018-12-30T12:24:31.288Z,7.80
2018-12-30T12:27:04.974Z,7.80
2018-12-30T12:29:38.492Z,7.80
2018-12-30T12:32:12.038Z,7.90
2018-12-30T12:34:45.637Z,7.90
2018-12-30T12:37:19.951Z,7.80
2018-12-30T12:39:53.621Z,7.80
2018-12-30T12:42:27.389Z,7.80
2018-12-30T12:45:00.965Z,7.80
2018-12-30T12:47:34.697Z,7.80
2018-12-30T12:50:08.439Z,7.90
2018-12-30T12:52:42.631Z,7.80
2018-12-30T12:55:16.382Z,7.90
2018-12-30T12:57:49.947Z,7.90
2018-12-30T13:00:23.603Z,8.00
2018-12-30T13:02:57.205Z,8.00
2018-12-30T13:05:30.789Z,7.90
2018-12-30T13:08:04.342Z,7.90
2018-12-30T13:10:37.971Z,7.90
2018-12-30T13:13:11.631Z,7.80
2018-12-30T13:15:45.991Z,7.80
2018-12-30T13:18:19.213Z,7.80
2018-12-30T13:20:52.990Z,7.80
2018-12-30T13:23:26.611Z,7.80
2018-12-30T13:26:00.403Z,7.70
2018-12-30T13:28:35.920Z,7.70
2018-12-30T13:31:09.508Z,7.60
2018-12-30T13:33:43.239Z,7.50
2018-12-30T13:36:17.032Z,7.40
2018-12-30T13:38:50.807Z,7.40
2018-12-30T13:41:24.626Z,7.50
2018-12-30T13:43:58.493Z,7.50
2018-12-30T13:46:32.214Z,7.60
2018-12-30T13:49:05.951Z,7.60
2018-12-30T13:51:39.503Z,7.70
2018-12-30T13:54:13.359Z,7.60
2018-12-30T13:56:47.034Z,7.60
2018-12-30T13:59:20.856Z,7.60
2018-12-30T14:01:54.515Z,7.60
2018-12-30T14:04:29.243Z,7.60
2018-12-30T14:07:01.847Z,7.50
2018-12-30T14:09:36.307Z,7.60
2018-12-30T14:12:10.054Z,7.60
2018-12-30T14:14:43.785Z,7.60
2018-12-30T14:17:17.353Z,7.60
2018-12-30T14:19:51.121Z,7.50
2018-12-30T14:22:24.892Z,7.40
2018-12-30T14:24:58.406Z,7.50
2018-12-30T14:27:32.018Z,7.40
2018-12-30T14:30:05.748Z,7.50
2018-12-30T14:32:39.437Z,7.40
2018-12-30T14:35:13.246Z,7.40
2018-12-30T14:37:47.487Z,7.40
2018-12-30T14:40:21.010Z,7.30
2018-12-30T14:42:54.739Z,7.30
2018-12-30T14:45:28.797Z,7.40
2018-12-30T14:48:02.359Z,7.30
2018-12-30T14:50:36.012Z,7.30
2018-12-30T14:53:18.817Z,7.30
2018-12-30T14:55:43.247Z,7.20
2018-12-30T14:58:16.813Z,7.20
2018-12-30T15:00:50.579Z,7.20
2018-12-30T15:03:24.384Z,7.20
2018-12-30T15:05:58.090Z,7.20
2018-12-30T15:08:31.806Z,7.20
2018-12-30T15:11:05.597Z,7.20
2018-12-30T15:13:39.375Z,7.20
2018-12-30T15:16:13.074Z,7.10
2018-12-30T15:18:46.657Z,7.10
2018-12-30T15:21:20.252Z,7.10
2018-12-30T15:23:53.825Z,7.10
2018-12-30T15:26:27.378Z,7.10
2018-12-30T15:29:00.907Z,7.10
2018-12-30T15:31:34.448Z,7.00
2018-12-30T15:34:07.964Z,6.90
2018-12-30T15:36:41.501Z,6.90
2018-12-30T15:39:15.898Z,6.80
2018-12-30T15:41:49.588Z,6.80
2018-12-30T15:44:23.172Z,6.80
2018-12-30T15:46:56.804Z,6.80
2018-12-30T15:49:30.546Z,6.90
2018-12-30T15:52:04.214Z,6.90
2018-12-30T15:54:38.727Z,6.80
2018-12-30T15:57:13.053Z,6.80
2018-12-30T15:59:46.685Z,6.80
2018-12-30T16:02:20.240Z,6.70
2018-12-30T16:04:53.899Z,6.70
2018-12-30T16:07:27.695Z,6.60
2018-12-30T16:10:01.493Z,6.60
2018-12-30T16:12:35.054Z,6.60
2018-12-30T16:15:09.567Z,6.80
2018-12-30T16:17:43.327Z,6.80
2018-12-30T16:20:17.107Z,6.70
2018-12-30T16:22:50.851Z,6.80
2018-12-30T16:25:27.228Z,6.60
2018-12-30T16:27:58.983Z,6.60
2018-12-30T16:30:32.503Z,6.70
2018-12-30T16:33:06.065Z,6.70
2018-12-30T16:35:39.676Z,6.70
2018-12-30T16:38:13.231Z,6.80
2018-12-30T16:40:47.739Z,6.80
2018-12-30T16:43:21.415Z,6.80
2018-12-30T16:45:55.119Z,6.90
2018-12-30T16:48:29.592Z,6.80
2018-12-30T16:51:03.368Z,6.70
2018-12-30T16:53:37.114Z,6.70
2018-12-30T16:56:10.758Z,6.80
2018-12-30T16:58:44.412Z,6.80
2018-12-30T17:01:18.030Z,6.80
2018-12-30T17:03:51.772Z,6.80
2018-12-30T17:06:25.381Z,6.80
2018-12-30T17:08:59.014Z,6.70
2018-12-30T17:11:32.801Z,6.70
2018-12-30T17:14:06.462Z,6.70
2018-12-30T17:16:39.987Z,6.70
2018-12-30T17:19:13.631Z,6.70
2018-12-30T17:21:47.388Z,6.70
2018-12-30T17:24:21.138Z,6.70
2018-12-30T17:26:54.826Z,6.50
2018-12-30T17:29:28.356Z,6.60
2018-12-30T17:32:02.247Z,6.50
2018-12-30T17:34:35.708Z,6.50
2018-12-30T17:37:09.398Z,6.50
2018-12-30T17:39:43.040Z,6.50
2018-12-30T17:42:16.721Z,6.60
2018-12-30T17:44:50.266Z,6.60
2018-12-30T17:47:24.839Z,6.50
2018-12-30T17:49:58.406Z,6.50
2018-12-30T17:52:31.962Z,6.40
2018-12-30T17:55:05.512Z,6.40
2018-12-30T17:57:39.110Z,6.50
2018-12-30T18:00:12.755Z,6.60
2018-12-30T18:02:46.411Z,6.50
2018-12-30T18:05:20.420Z,6.60
2018-12-30T18:07:53.983Z,6.60
2018-12-30T18:10:27.591Z,6.60
2018-12-30T18:13:01.105Z,6.60
2018-12-30T18:15:35.580Z,6.70
2018-12-30T18:18:09.371Z,6.70
2018-12-30T18:20:43.247Z,6.60
2018-12-30T18:23:17.603Z,6.60
2018-12-30T18:25:58.434Z,6.70
2018-12-30T18:28:25.051Z,6.70
2018-12-30T18:30:58.739Z,6.70
2018-12-30T18:33:32.348Z,6.80
2018-12-30T18:36:06.057Z,6.80
2018-12-30T18:38:40.408Z,6.70
2018-12-30T18:41:14.195Z,6.70
2018-12-30T18:43:47.847Z,6.70
2018-12-30T18:46:21.393Z,6.70
2018-12-30T18:48:54.994Z,6.70
2018-12-30T18:51:28.779Z,6.60
2018-12-30T18:54:02.520Z,6.60
2018-12-30T18:56:36.040Z,6.70
2018-12-30T18:59:09.598Z,6.70
2018-12-30T19:01:43.383Z,6.60
2018-12-30T19:04:16.909Z,6.50
2018-12-30T19:06:50.517Z,6.60
2018-12-30T19:09:24.151Z,6.60
2018-12-30T19:11:57.785Z,6.60
2018-12-30T19:14:31.517Z,6.60
2018-12-30T19:17:05.241Z,6.60
2018-12-30T19:19:39.668Z,6.50
2018-12-30T19:22:13.257Z,6.40
2018-12-30T19:24:46.881Z,6.50
2018-12-30T19:27:20.642Z,6.50
2018-12-30T19:29:54.250Z,6.60
2018-12-30T19:32:27.979Z,6.60
2018-12-30T19:35:01.540Z,6.60
2018-12-30T19:37:35.246Z,6.60
2018-12-30T19:40:09.050Z,6.60
2018-12-30T19:42:42.731Z,6.50
2018-12-30T19:45:16.432Z,6.50
2018-12-30T19:47:50.000Z,6.50
2018-12-30T19:50:23.695Z,6.50
2018-12-30T19:52:57.291Z,6.50
2018-12-30T19:55:30.875Z,6.50
2018-12-30T19:58:04.459Z,6.50
2018-12-30T20:00:38.044Z,6.50
2018-12-30T20:03:11.586Z,6.50
2018-12-30T20:05:45.314Z,6.40
2018-12-30T20:08:18.955Z,6.40
2018-12-30T20:10:52.580Z,6.40
2018-12-30T20:13:26.178Z,6.30
2018-12-30T20:16:00.528Z,6.20
2018-12-30T20:18:35.025Z,6.20
2018-12-30T20:21:08.670Z,6.20
2018-12-30T20:23:42.424Z,6.20
2018-12-30T20:26:16.086Z,6.20
2018-12-30T20:28:49.662Z,6.20
2018-12-30T20:31:23.412Z,6.30
2018-12-30T20:33:56.941Z,6.20
2018-12-30T20:36:30.503Z,6.20
2018-12-30T20:39:04.225Z,6.10
2018-12-30T20:41:38.016Z,6.10
2018-12-30T20:44:11.670Z,6.00
2018-12-30T20:46:45.971Z,6.00
2018-12-30T20:49:19.584Z,6.00
2018-12-30T20:51:53.913Z,6.00
2018-12-30T20:54:27.755Z,5.90
2018-12-30T20:57:02.203Z,5.90
2018-12-30T20:59:35.879Z,5.90
2018-12-30T21:02:09.571Z,5.90
2018-12-30T21:04:43.195Z,5.80
2018-12-30T21:07:16.836Z,5.80
2018-12-30T21:09:50.451Z,5.80
2018-12-30T21:12:24.120Z,5.80
2018-12-30T21:14:57.741Z,5.70
2018-12-30T21:17:32.136Z,5.70
2018-12-30T21:20:05.803Z,5.70
2018-12-30T21:22:39.402Z,5.70
2018-12-30T21:25:12.965Z,5.70
2018-12-30T21:27:46.806Z,5.70
2018-12-30T21:30:20.572Z,5.70
2018-12-30T21:32:54.174Z,5.70
2018-12-30T21:35:27.739Z,5.70
2018-12-30T21:38:01.307Z,5.80
2018-12-30T21:40:35.099Z,5.70
2018-12-30T21:43:08.679Z,5.80
2018-12-30T21:45:42.483Z,5.80
2018-12-30T21:48:17.021Z,5.70
2018-12-30T21:50:50.679Z,5.70
2018-12-30T21:53:24.400Z,5.70
2018-12-30T21:55:58.163Z,5.80
2018-12-30T21:58:32.565Z,5.80
2018-12-30T22:01:06.273Z,5.70
2018-12-30T22:03:40.026Z,5.70
2018-12-30T22:06:13.575Z,5.60
2018-12-30T22:08:47.105Z,5.60
2018-12-30T22:11:20.848Z,5.60
2018-12-30T22:13:54.694Z,5.60
2018-12-30T22:16:28.356Z,5.60
2018-12-30T22:19:02.028Z,5.60
2018-12-30T22:21:35.715Z,5.60
2018-12-30T22:24:09.334Z,5.60
2018-12-30T22:26:43.051Z,5.70
2018-12-30T22:29:16.584Z,5.70
2018-12-30T22:31:50.278Z,5.70
2018-12-30T22:34:24.612Z,5.80
2018-12-30T22:36:58.266Z,5.80
2018-12-30T22:39:31.913Z,5.80
2018-12-30T22:42:05.643Z,5.70
2018-12-30T22:44:40.195Z,5.70
2018-12-30T22:47:13.964Z,5.70
2018-12-30T22:49:48.212Z,5.80
2018-12-30T22:52:22.975Z,5.70
2018-12-30T22:54:56.560Z,5.80
2018-12-30T22:57:31.041Z,5.80
2018-12-30T23:00:04.733Z,5.80
2018-12-30T23:02:38.609Z,5.80
2018-12-30T23:05:12.334Z,5.80
2018-12-30T23:07:46.204Z,5.80
2018-12-30T23:10:19.985Z,5.80
2018-12-30T23:12:53.747Z,5.80
2018-12-30T23:15:27.304Z,5.90
2018-12-30T23:18:00.886Z,5.80
2018-12-30T23:20:34.621Z,5.90
2018-12-30T23:23:08.220Z,5.80
2018-12-30T23:25:41.867Z,5.80
2018-12-30T23:28:16.278Z,5.80
2018-12-30T23:30:49.974Z,5.80
2018-12-30T23:33:23.554Z,5.70
2018-12-30T23:35:57.129Z,5.70
2018-12-30T23:38:30.692Z,5.70
2018-12-30T23:41:04.461Z,5.80
2018-12-30T23:43:38.086Z,5.70
2018-12-30T23:46:12.203Z,5.70
2018-12-30T23:48:45.916Z,5.70
2018-12-30T23:51:19.602Z,5.70
2018-12-30T23:53:53.172Z,5.70
2018-12-30T23:56:27.512Z,5.70
2018-12-30T23:59:01.218Z,5.70
